Terminal Aerodrome Forecast
Issued by NWS

Current Version | Previous Version | Text Only | Print | Product List | Glossary On
Versions: 1 2 3 4 5 6 7 8 9 10 11 12 13 14 15 16 17 18 19 20 21
133
FTUS43 KAPX 250525
TAFAPN
TAF
KAPN 250525Z 2506/2606 12014G22KT P6SM OVC025 WS020/13045KT
     FM250700 13017G25KT P6SM -RA OVC020 WS020/13045KT
     FM251000 14017G24KT 4SM -RA BR OVC005 WS020/15045KT
     FM251200 19013G21KT P6SM -DZ OVC008 WS020/25045KT
     FM251400 23017G31KT P6SM BKN015
     FM251700 25020G34KT P6SM SCT025
     FM251900 25020G32KT P6SM FEW250
     FM260500 25014G22KT P6SM FEW250=

USA.gov is the U.S. government's official web portal to all federal, state and local government web resources and services.